Time;durP1;ratioP1;P1;durP2;ratioP2;P2;SDS_P1;SDS_P2;PMS_P1;PMS_P2;Temp;Humidity;BMP_temperature;BMP_pressure;BME280_temperature;BME280_humidity;BME280_pressure;Samples;Min_cycle;Max_cycle;Signal;HPM_P1;HPM_P2
2023/04/28 00:00:31;;;;;;;4.73;3.87;;;9.50;61.00;;;8.61;59.62;97861.53;5014955;28;20457;-77
2023/04/28 00:02:59;;;;;;;5.37;3.70;;;9.50;61.10;;;8.90;59.80;97907.97;5044153;28;20896;-75
2023/04/28 00:05:28;;;;;;;4.87;3.90;;;9.40;61.10;;;8.89;60.31;97911.69;5044874;28;20457;-76
2023/04/28 00:07:56;;;;;;;5.77;3.33;;;9.40;61.40;;;8.78;59.66;97900.50;5031613;28;20465;-75
2023/04/28 00:10:24;;;;;;;4.23;3.90;;;9.40;61.50;;;8.85;59.67;97910.44;5035677;28;20465;-76
2023/04/28 00:12:55;;;;;;;4.40;4.00;;;9.40;61.50;;;9.01;59.44;97914.59;5046739;28;20455;-77
2023/04/28 00:15:23;;;;;;;4.20;3.50;;;9.40;61.60;;;8.56;60.09;97846.00;5029014;28;20444;-78
2023/04/28 00:17:50;;;;;;;6.47;3.73;;;9.40;61.70;;;8.79;59.87;97859.06;5013397;28;20450;-78
2023/04/28 00:20:25;;;;;;;4.03;3.63;;;9.50;61.80;;;8.79;60.04;97868.97;5030213;28;20458;-75
2023/04/28 00:22:53;;;;;;;6.60;3.80;;;9.50;61.60;;;8.83;59.58;97870.25;5027900;28;20917;-76
2023/04/28 00:25:22;;;;;;;4.93;3.70;;;9.50;61.60;;;8.99;59.67;97895.13;5020823;28;20503;-77
2023/04/28 00:27:52;;;;;;;5.77;4.00;;;9.50;61.70;;;8.88;59.68;97861.56;5031285;28;20466;-78
2023/04/28 00:30:24;;;;;;;4.20;3.40;;;9.50;61.80;;;8.62;59.80;97833.56;5023663;28;20502;-79
2023/04/28 00:33:05;;;;;;;3.87;3.47;;;9.50;62.00;;;8.53;59.71;97824.88;5029055;28;20545;-77
2023/04/28 00:35:34;;;;;;;3.80;3.50;;;9.40;62.00;;;8.91;60.04;97874.59;5020596;28;20614;-77
2023/04/28 00:38:02;;;;;;;3.80;3.30;;;9.40;62.20;;;8.98;60.32;97874.59;5042527;28;20572;-78
2023/04/28 00:40:36;;;;;;;5.83;3.47;;;9.40;62.20;;;8.37;60.04;97769.53;5052641;28;20478;-77
2023/04/28 00:43:52;;;;;;;3.67;3.10;;;9.50;62.30;;;8.35;60.01;97767.06;5060199;28;20551;-78
2023/04/28 00:49:21;;;;;;;4.27;3.43;;;9.50;62.30;;;9.16;59.44;97868.53;5051547;28;20486;-77
2023/04/28 00:51:49;;;;;;;3.57;3.27;;;9.60;62.30;;;9.19;59.75;97878.94;5044429;28;20439;-76
2023/04/28 00:54:17;;;;;;;4.83;4.00;;;9.60;62.20;;;8.97;59.21;97846.00;5033405;28;20453;-74
2023/04/28 00:56:45;;;;;;;4.23;3.83;;;9.60;62.00;;;9.03;59.93;97843.28;5031970;28;21200;-76
2023/04/28 00:59:16;;;;;;;4.70;3.63;;;9.60;62.30;;;8.92;59.80;97801.63;5048254;28;20503;-75
2023/04/28 01:01:53;;;;;;;3.73;3.43;;;9.70;62.30;;;9.19;59.69;97852.78;5048530;28;20599;-76
2023/04/28 01:04:21;;;;;;;5.90;4.00;;;9.60;62.10;;;9.00;59.49;97810.53;5035643;28;20505;-77
2023/04/28 01:06:53;;;;;;;5.97;3.37;;;9.70;62.30;;;9.23;59.61;97860.44;5036528;28;20467;-77
2023/04/28 01:09:26;;;;;;;4.30;3.90;;;9.70;62.20;;;8.73;59.28;97779.09;5039624;28;20989;-76
2023/04/28 01:11:54;;;;;;;4.43;3.30;;;9.70;62.30;;;9.26;59.60;97841.19;5041376;28;20571;-77
2023/04/28 01:14:22;;;;;;;4.13;3.73;;;9.70;62.30;;;9.27;59.85;97849.03;5028968;28;20450;-75
2023/04/28 01:16:51;;;;;;;3.90;3.30;;;9.70;62.20;;;9.03;59.71;97799.34;5028677;28;20512;-75
2023/04/28 01:19:22;;;;;;;4.70;3.57;;;9.70;62.40;;;9.04;60.40;97807.22;5025382;28;20457;-74
2023/04/28 01:21:51;;;;;;;3.60;3.30;;;9.70;62.50;;;9.21;60.22;97831.03;5047635;28;20471;-74
2023/04/28 01:24:20;;;;;;;6.63;3.30;;;9.70;62.60;;;9.21;59.71;97822.94;5029721;28;20543;-75
2023/04/28 01:26:50;;;;;;;5.17;3.27;;;9.70;62.60;;;8.97;60.21;97803.69;5031170;28;20499;-75
2023/04/28 01:29:19;;;;;;;3.97;3.57;;;9.70;62.80;;;8.83;60.57;97767.88;5030339;28;20474;-75
2023/04/28 01:31:47;;;;;;;4.80;3.73;;;9.70;62.90;;;8.52;59.76;97699.34;5050529;28;20465;-76
2023/04/28 01:34:14;;;;;;;3.33;2.80;;;9.70;63.00;;;8.83;60.41;97749.03;5024944;28;20453;-77
2023/04/28 01:36:44;;;;;;;4.93;3.83;;;9.80;63.30;;;9.20;59.60;97799.72;5047570;28;20929;-79
2023/04/28 01:39:13;;;;;;;4.77;3.60;;;9.80;63.30;;;9.33;60.24;97818.53;5061907;28;20452;-78
2023/04/28 01:41:42;;;;;;;4.50;3.53;;;9.80;63.30;;;8.79;60.36;97750.47;5059961;28;20446;-75
2023/04/28 01:44:12;;;;;;;3.60;3.30;;;9.80;63.40;;;9.36;60.09;97825.38;5045216;28;20466;-77
2023/04/28 01:46:39;;;;;;;4.20;3.90;;;9.80;63.50;;;9.31;60.28;97828.69;5030113;28;20536;-76
2023/04/28 01:49:07;;;;;;;4.30;3.70;;;9.80;63.70;;;9.07;60.10;97796.00;5033446;28;20446;-76
2023/04/28 01:51:34;;;;;;;5.00;3.70;;;9.80;63.70;;;8.05;60.37;97615.94;5035427;28;20466;-76
2023/04/28 01:54:01;;;;;;;3.47;3.10;;;9.80;63.80;;;9.07;61.09;97790.63;5041031;28;20446;-74
2023/04/28 01:56:29;;;;;;;5.40;3.73;;;9.80;64.10;;;8.76;61.43;97734.72;5057108;28;20540;-75
2023/04/28 01:58:58;;;;;;;3.47;3.17;;;9.80;64.30;;;8.53;61.05;97698.31;5044534;28;20458;-75
2023/04/28 02:01:26;;;;;;;4.83;3.87;;;9.70;64.20;;;8.99;61.30;97771.97;5030169;28;20452;-74
2023/04/28 02:03:54;;;;;;;4.40;3.60;;;9.70;64.50;;;9.17;61.51;97800.09;5044944;28;20441;-77
2023/04/28 02:06:22;;;;;;;4.67;3.40;;;9.70;64.50;;;8.73;61.48;97736.00;5021201;28;20481;-75
2023/04/28 02:08:49;;;;;;;4.40;3.33;;;9.70;64.70;;;9.21;61.30;97798.66;5048799;28;20516;-76
2023/04/28 02:11:16;;;;;;;5.13;3.47;;;9.70;64.80;;;8.48;62.11;97690.00;5037230;28;20770;-75
2023/04/28 02:13:44;;;;;;;3.80;3.50;;;9.70;64.90;;;8.85;61.53;97752.31;5053634;28;20542;-75
2023/04/28 02:16:13;;;;;;;5.10;4.07;;;9.70;65.10;;;9.18;61.74;97802.59;5043298;28;20461;-76
2023/04/28 02:18:50;;;;;;;3.80;3.50;;;9.70;65.30;;;9.17;61.78;97817.13;5062398;28;20463;-75
2023/04/28 02:21:18;;;;;;;4.80;3.60;;;9.70;65.40;;;8.23;61.73;97675.31;5057584;28;20929;-75
2023/04/28 02:23:47;;;;;;;7.03;3.70;;;9.70;65.50;;;8.89;61.73;97761.63;5045545;28;20453;-75
2023/04/28 02:26:14;;;;;;;3.30;3.00;;;9.70;65.50;;;9.20;61.79;97799.72;5001532;28;20460;-75
2023/04/28 02:28:42;;;;;;;4.30;3.90;;;9.70;65.40;;;8.58;61.27;97689.63;5028024;28;20457;-75
2023/04/28 02:31:12;;;;;;;4.27;3.80;;;9.80;65.50;;;8.81;61.92;97708.00;5040399;28;20504;-76
2023/04/28 02:33:42;;;;;;;4.13;3.73;;;9.80;65.50;;;8.69;61.56;97702.41;5041236;28;21195;-74
2023/04/28 02:36:11;;;;;;;4.50;3.43;;;9.80;65.50;;;9.30;62.22;97786.59;5003262;28;20462;-76
2023/04/28 02:39:01;;;;;;;4.47;3.47;;;9.90;65.70;;;8.41;61.51;97641.53;5054033;28;20567;-77
2023/04/28 02:41:30;;;;;;;4.03;3.40;;;9.90;65.70;;;9.17;61.30;97730.88;5045782;28;21096;-75
2023/04/28 02:43:57;;;;;;;4.50;4.10;;;9.90;65.50;;;9.33;61.14;97751.16;5030426;28;20532;-72
2023/04/28 02:46:26;;;;;;;4.93;3.50;;;10.00;64.60;;;8.84;61.77;97683.31;5026047;28;20745;-74
2023/04/28 02:48:53;;;;;;;4.00;3.60;;;9.90;65.60;;;8.76;61.26;97670.06;5038559;28;20457;-74
2023/04/28 02:51:22;;;;;;;3.60;3.33;;;9.90;65.60;;;9.34;61.87;97757.34;5055470;28;20982;-74
2023/04/28 02:53:51;;;;;;;4.20;3.20;;;9.90;65.70;;;9.13;61.51;97720.72;5026115;28;20461;-77
2023/04/28 02:56:18;;;;;;;5.10;3.50;;;10.00;64.70;;;7.69;61.24;97482.78;5023418;28;20821;-75
2023/04/28 02:58:46;;;;;;;4.97;3.43;;;9.90;65.80;;;9.05;61.61;97701.06;5025862;28;20481;-76
2023/04/28 03:01:13;;;;;;;3.70;3.00;;;9.90;65.90;;;9.49;61.52;97771.38;5023614;28;20452;-75
2023/04/28 03:03:54;;;;;;;5.67;3.97;;;10.00;64.90;;;9.20;61.39;97722.34;5043566;28;20548;-75
2023/04/28 03:06:25;;;;;;;3.87;2.93;;;10.00;64.80;;;9.49;61.63;97770.56;5040694;28;20643;-76
2023/04/28 03:08:54;;;;;;;5.80;3.87;;;10.00;64.90;;;8.96;61.08;97688.88;5016723;28;20551;-74
2023/04/28 03:11:21;;;;;;;4.93;3.70;;;10.00;64.90;;;9.49;61.30;97749.00;5020928;28;20569;-75
2023/04/28 03:13:51;;;;;;;3.93;3.53;;;10.00;64.90;;;9.17;61.18;97695.00;5026258;28;20978;-76
2023/04/28 03:16:19;;;;;;;7.47;3.47;;;10.00;64.90;;;9.52;61.67;97750.41;5022485;28;20449;-74
2023/04/28 03:18:46;;;;;;;4.10;3.63;;;10.00;65.10;;;8.73;61.66;97612.09;5042745;28;20456;-74
2023/04/28 03:21:16;;;;;;;5.40;3.77;;;10.00;65.10;;;9.28;61.78;97710.50;5037882;28;20476;-74
2023/04/28 03:23:48;;;;;;;3.33;3.03;;;10.00;65.10;;;8.33;61.76;97563.72;5028282;28;20991;-76
2023/04/28 03:26:16;;;;;;;3.80;3.40;;;10.10;65.20;;;8.62;61.90;97583.13;5032123;28;20461;-75
2023/04/28 03:28:43;;;;;;;5.67;3.63;;;10.00;65.20;;;9.24;61.18;97671.53;5046256;28;20457;-75
2023/04/28 03:31:12;;;;;;;4.07;3.67;;;10.10;65.10;;;9.16;61.12;97642.13;5033394;28;20474;-74
2023/04/28 03:33:41;;;;;;;3.43;3.10;;;10.10;65.10;;;9.72;61.47;97720.63;5045258;28;20579;-76
2023/04/28 03:36:09;;;;;;;4.67;3.40;;;10.20;65.10;;;9.71;60.85;97724.38;5018085;28;20606;-75
2023/04/28 03:38:38;;;;;;;4.30;3.27;;;10.20;65.00;;;9.69;61.32;97723.78;5036683;28;20482;-76
2023/04/28 03:41:06;;;;;;;5.03;3.60;;;10.20;65.00;;;9.37;61.02;97681.41;5021066;28;20516;-76
2023/04/28 03:43:55;;;;;;;4.57;3.60;;;10.20;65.00;;;9.34;61.24;97654.91;5046122;28;20476;-75
2023/04/28 03:46:22;;;;;;;5.10;3.60;;;10.20;65.00;;;9.13;60.85;97635.31;5032326;28;20551;-78
2023/04/28 03:48:50;;;;;;;3.80;3.50;;;10.20;65.00;;;9.19;61.19;97647.13;5024131;28;21034;-75
2023/04/28 03:51:18;;;;;;;4.73;3.50;;;10.20;65.00;;;9.70;60.99;97725.44;5045219;28;20568;-77
2023/04/28 03:53:47;;;;;;;6.87;3.33;;;10.20;65.00;;;9.77;60.26;97707.31;5029502;28;20476;-76
2023/04/28 03:56:14;;;;;;;4.23;3.37;;;10.20;64.90;;;9.40;61.04;97666.69;5028001;28;20559;-75
2023/04/28 03:58:42;;;;;;;4.27;3.20;;;10.20;64.90;;;9.42;61.32;97657.34;5026417;28;20457;-76
2023/04/28 04:01:11;;;;;;;4.40;3.50;;;10.20;64.90;;;9.27;60.71;97643.34;5018335;28;20461;-75
2023/04/28 04:03:38;;;;;;;3.73;3.40;;;10.30;64.80;;;9.80;60.67;97715.00;5054021;28;20974;-75
2023/04/28 04:06:07;;;;;;;5.40;3.70;;;10.30;64.80;;;9.62;60.76;97673.38;5039881;28;20528;-76
2023/04/28 04:08:35;;;;;;;4.63;3.70;;;10.30;64.60;;;9.76;60.45;97686.78;5043973;28;20485;-76
2023/04/28 04:11:03;;;;;;;4.17;3.27;;;10.30;64.70;;;9.68;60.82;97677.06;5046044;28;20477;-75
2023/04/28 04:13:33;;;;;;;4.43;3.67;;;10.30;65.00;;;9.92;60.25;97691.63;5047280;28;20457;-74
2023/04/28 04:16:01;;;;;;;3.70;3.40;;;10.40;64.70;;;9.34;59.86;97615.28;5024349;28;20451;-74
2023/04/28 04:18:31;;;;;;;4.13;3.73;;;10.40;64.50;;;9.37;60.44;97594.31;5034332;28;20456;-76
2023/04/28 04:20:59;;;;;;;5.10;4.00;;;10.50;64.90;;;9.89;61.12;97699.38;5046164;28;20536;-76
2023/04/28 04:23:26;;;;;;;5.23;4.10;;;10.50;64.80;;;9.69;60.65;97645.56;5024662;28;20467;-74
2023/04/28 04:25:54;;;;;;;3.10;2.80;;;10.50;65.00;;;9.45;60.62;97608.38;5049944;28;20471;-75
2023/04/28 04:28:23;;;;;;;3.60;2.80;;;10.50;64.90;;;9.59;60.81;97616.38;5065683;28;20525;-75
2023/04/28 04:30:50;;;;;;;4.90;4.07;;;10.50;65.20;;;10.03;60.83;97689.28;5045641;28;20477;-75
2023/04/28 04:33:19;;;;;;;4.43;3.70;;;10.50;64.90;;;10.10;60.87;97679.28;5052927;28;20457;-76
2023/04/28 04:35:55;;;;;;;4.80;3.30;;;10.60;64.90;;;9.87;60.89;97653.69;5046234;28;20549;-76
2023/04/28 04:38:22;;;;;;;4.17;3.13;;;10.60;65.00;;;10.02;60.06;97671.44;5026065;28;20449;-71
2023/04/28 04:40:50;;;;;;;4.07;3.63;;;10.60;64.90;;;10.21;60.48;97694.72;5038737;28;20453;-73
2023/04/28 04:43:17;;;;;;;3.90;3.43;;;10.70;64.80;;;10.30;59.85;97679.06;5041466;28;20464;-72
2023/04/28 04:45:45;;;;;;;4.07;3.67;;;10.80;65.00;;;10.38;60.06;97685.25;5034719;28;20457;-71
2023/04/28 04:48:13;;;;;;;6.10;3.20;;;10.80;64.70;;;10.40;59.75;97684.00;5035084;28;20456;-75
2023/04/28 04:50:42;;;;;;;4.67;3.70;;;10.90;64.70;;;10.49;59.38;97679.16;5020854;28;20480;-72
2023/04/28 04:53:09;;;;;;;4.00;3.40;;;11.00;64.40;;;10.51;59.19;97681.63;5037374;28;20485;-72
2023/04/28 04:55:37;;;;;;;7.00;3.30;;;11.00;64.30;;;10.57;59.77;97684.25;5026055;28;20600;-73
2023/04/28 04:58:04;;;;;;;8.30;3.50;;;11.00;64.70;;;10.64;59.71;97689.59;5051982;28;21012;-71
2023/04/28 05:00:32;;;;;;;6.50;3.57;;;11.00;65.00;;;10.59;60.00;97689.44;5026369;28;20453;-71
2023/04/28 05:03:02;;;;;;;5.37;4.30;;;11.00;65.30;;;10.52;60.40;97681.41;5040787;28;20461;-71
2023/04/28 05:05:30;;;;;;;4.40;4.00;;;11.00;65.50;;;10.37;59.97;97657.41;5038955;28;20768;-71
2023/04/28 05:07:57;;;;;;;3.57;3.17;;;11.00;65.40;;;10.66;60.20;97681.28;5039056;28;20534;-70
2023/04/28 05:10:25;;;;;;;7.40;4.53;;;11.00;65.50;;;10.56;59.82;97700.69;5026790;28;20469;-75
2023/04/28 05:12:52;;;;;;;4.37;3.57;;;11.00;65.30;;;10.59;59.62;97700.25;5043940;28;20455;-74
2023/04/28 05:15:19;;;;;;;5.33;3.30;;;11.10;65.30;;;10.78;59.27;97690.28;5036512;28;20490;-73
2023/04/28 05:17:46;;;;;;;5.60;4.23;;;11.10;65.40;;;10.77;60.05;97699.44;5036282;28;20497;-74
2023/04/28 05:20:15;;;;;;;4.47;3.30;;;11.20;65.10;;;10.61;59.43;97696.28;5039261;28;20464;-71
2023/04/28 05:22:42;;;;;;;3.13;2.70;;;11.20;64.80;;;10.75;59.86;97702.38;5033292;28;20461;-74
2023/04/28 05:25:10;;;;;;;4.03;3.43;;;11.20;64.80;;;10.75;59.20;97699.66;5040718;28;20447;-72
2023/04/28 05:27:38;;;;;;;3.57;3.20;;;11.20;64.80;;;10.89;58.99;97692.22;5027777;28;20548;-71
2023/04/28 05:30:07;;;;;;;3.93;3.33;;;11.30;65.00;;;11.09;58.33;97702.00;5045849;28;20456;-74
2023/04/28 05:32:35;;;;;;;6.03;3.63;;;11.30;64.70;;;10.91;59.24;97700.94;5021184;28;20441;-73
2023/04/28 05:35:03;;;;;;;4.30;3.67;;;11.40;64.80;;;10.94;59.22;97691.56;5037254;28;20612;-76
2023/04/28 05:37:32;;;;;;;4.77;3.23;;;11.40;64.90;;;10.99;59.49;97705.19;5044989;28;20485;-74
2023/04/28 05:39:59;;;;;;;3.80;3.50;;;11.50;65.00;;;10.95;60.38;97695.91;5035813;28;20514;-75
2023/04/28 05:42:26;;;;;;;3.40;3.10;;;11.40;65.40;;;10.95;60.48;97695.91;5047792;28;20469;-75
2023/04/28 05:44:53;;;;;;;4.50;3.90;;;11.40;66.10;;;11.32;61.24;97701.28;5039214;28;20450;-72
2023/04/28 05:47:21;;;;;;;7.17;3.17;;;11.60;67.30;;;11.20;60.27;97698.50;5045005;28;20535;-76
2023/04/28 05:49:48;;;;;;;5.00;4.00;;;11.60;66.60;;;11.10;61.42;97708.22;5049419;28;20456;-74
2023/04/28 05:52:15;;;;;;;4.83;3.30;;;11.60;66.90;;;11.13;62.14;97699.66;5040913;28;20474;-72
2023/04/28 05:54:44;;;;;;;4.60;4.13;;;11.60;67.50;;;11.43;61.46;97699.69;5039825;28;20461;-74
2023/04/28 05:57:11;;;;;;;3.47;3.17;;;11.70;67.60;;;11.36;61.36;97698.13;5014546;28;20449;-74
2023/04/28 05:59:38;;;;;;;4.13;3.73;;;11.80;67.90;;;11.43;61.98;97693.44;5024400;28;20465;-75
2023/04/28 06:02:06;;;;;;;5.10;4.03;;;11.80;68.50;;;11.13;62.69;97692.38;5021303;28;20458;-73
2023/04/28 06:04:33;;;;;;;4.30;3.87;;;11.70;68.10;;;11.13;63.35;97691.53;5039650;28;20459;-76
2023/04/28 06:07:00;;;;;;;3.90;3.03;;;11.70;69.30;;;11.17;63.97;97695.44;5038198;28;20461;-73
2023/04/28 06:09:28;;;;;;;5.13;3.97;;;11.60;70.00;;;10.98;64.48;97694.63;5045042;28;20461;-71
2023/04/28 06:11:57;;;;;;;5.37;3.83;;;11.60;70.60;;;11.14;64.46;97682.38;5022617;28;20470;-73
2023/04/28 06:14:24;;;;;;;5.43;4.30;;;11.60;71.00;;;11.34;64.02;97682.94;5052557;28;20445;-71
2023/04/28 06:16:52;;;;;;;4.47;4.00;;;11.70;71.00;;;11.10;64.69;97683.88;5046430;28;20470;-71
2023/04/28 06:19:19;;;;;;;4.37;3.97;;;11.70;71.40;;;11.10;64.90;97689.28;5056042;28;20464;-71
2023/04/28 06:21:49;;;;;;;4.10;3.70;;;11.70;71.70;;;11.19;65.58;97694.16;5041235;28;20461;-70
2023/04/28 06:24:16;;;;;;;4.43;4.03;;;11.60;72.50;;;11.14;65.91;97694.03;5032002;28;20512;-71
2023/04/28 06:26:43;;;;;;;5.30;3.60;;;11.60;72.50;;;11.15;65.58;97695.66;5022907;28;20461;-73
2023/04/28 06:29:12;;;;;;;4.30;3.80;;;11.70;72.80;;;10.86;65.91;97702.69;5045594;28;20519;-69
2023/04/28 06:31:39;;;;;;;5.17;3.63;;;11.50;72.40;;;10.99;65.23;97680.88;5024520;28;20468;-70
2023/04/28 06:34:06;;;;;;;4.27;3.87;;;11.50;72.70;;;11.16;64.91;97691.09;5038290;28;20461;-70
2023/04/28 06:36:33;;;;;;;8.77;4.80;;;11.60;72.50;;;11.03;65.20;97692.91;5030262;28;20450;-72
2023/04/28 06:39:00;;;;;;;4.43;4.07;;;11.50;72.30;;;10.92;66.01;97690.94;5028023;28;20450;-69
2023/04/28 06:41:29;;;;;;;7.60;4.47;;;11.50;72.80;;;11.14;65.32;97682.38;5034996;28;20451;-71
2023/04/28 06:43:56;;;;;;;4.90;3.80;;;11.50;73.00;;;10.84;65.98;97683.13;5054017;28;20519;-70
2023/04/28 06:46:24;;;;;;;4.10;3.60;;;11.40;73.20;;;10.76;67.01;97674.28;5040845;28;20454;-70
2023/04/28 06:48:52;;;;;;;8.10;4.43;;;11.40;73.60;;;10.90;66.77;97672.25;5040901;28;20431;-68
2023/04/28 06:51:19;;;;;;;4.63;3.90;;;11.40;74.40;;;10.94;67.22;97667.22;5060305;28;20485;-68
2023/04/28 06:53:46;;;;;;;4.77;4.37;;;11.40;74.80;;;11.01;67.58;97662.59;5058505;28;20482;-72
2023/04/28 06:56:14;;;;;;;6.30;4.47;;;11.50;75.20;;;10.96;67.71;97659.72;5025735;28;21002;-71
2023/04/28 06:58:42;;;;;;;4.70;4.03;;;11.50;75.00;;;10.73;67.88;97653.13;5040898;28;20922;-72
2023/04/28 07:01:09;;;;;;;4.83;4.37;;;11.40;75.00;;;10.94;67.82;97667.22;5041096;28;20552;-69
2023/04/28 07:03:38;;;;;;;4.23;3.83;;;11.40;75.80;;;10.65;69.05;97658.81;5043313;28;20461;-71
2023/04/28 07:06:06;;;;;;;3.80;3.50;;;11.30;76.20;;;10.70;69.66;97656.28;5016029;28;20473;-70
2023/04/28 07:08:33;;;;;;;4.53;3.77;;;11.30;77.10;;;10.94;68.94;97664.53;5026302;28;20544;-69
2023/04/28 07:11:03;;;;;;;4.50;4.10;;;11.40;77.40;;;10.96;70.17;97664.31;5033665;28;20478;-71
2023/04/28 07:13:30;;;;;;;4.63;4.17;;;11.40;78.00;;;11.02;70.28;97664.22;5043940;28;20515;-71
2023/04/28 07:15:57;;;;;;;4.60;4.20;;;11.50;78.60;;;11.17;70.57;97665.72;5020930;28;20454;-68
2023/04/28 07:18:25;;;;;;;7.03;4.37;;;11.50;78.80;;;11.09;70.53;97666.84;5039482;28;20490;-69
2023/04/28 07:20:53;;;;;;;4.70;4.27;;;11.50;78.80;;;10.57;70.92;97624.03;5036796;28;20941;-71
2023/04/28 07:23:21;;;;;;;6.20;4.20;;;11.40;78.60;;;10.83;71.88;97665.28;5024844;28;20872;-71
2023/04/28 07:25:48;;;;;;;6.03;4.30;;;11.30;79.50;;;10.80;72.32;97668.44;5053950;28;20461;-73
2023/04/28 07:28:15;;;;;;;4.33;3.83;;;11.30;80.50;;;10.70;72.89;97667.09;5042681;28;20453;-72
2023/04/28 07:30:43;;;;;;;4.90;4.37;;;11.10;81.10;;;10.60;73.59;97673.00;5039058;28;20492;-73
2023/04/28 07:33:10;;;;;;;4.63;3.90;;;11.20;81.30;;;10.39;73.75;97676.09;5018592;28;20458;-71
2023/04/28 07:35:37;;;;;;;6.37;4.80;;;11.00;81.20;;;10.59;74.17;97698.34;5049082;28;20461;-72
2023/04/28 07:38:06;;;;;;;6.20;4.80;;;11.00;82.50;;;10.54;74.43;97689.28;5017170;28;20515;-70
2023/04/28 07:40:33;;;;;;;5.60;4.40;;;11.00;83.00;;;10.57;75.00;97684.25;5037796;28;20505;-71
2023/04/28 07:43:00;;;;;;;4.70;4.10;;;11.10;83.80;;;10.22;76.94;97687.47;5017818;28;20459;-71
2023/04/28 07:45:27;;;;;;;5.63;5.13;;;10.80;84.60;;;10.14;77.53;97680.47;5038204;28;20548;-71
2023/04/28 07:47:55;;;;;;;5.27;4.77;;;10.70;86.40;;;10.11;76.46;97680.09;5043181;28;20468;-71
2023/04/28 07:50:22;;;;;;;6.63;5.33;;;10.70;86.20;;;10.17;76.01;97693.53;5021847;28;20523;-71
2023/04/28 07:52:49;;;;;;;4.70;4.30;;;10.70;86.40;;;10.41;76.92;97699.19;5025873;28;20764;-72
2023/04/28 07:55:18;;;;;;;9.60;5.63;;;10.80;86.80;;;10.41;77.75;97691.06;5033822;28;21229;-70
2023/04/28 07:57:46;;;;;;;6.57;4.77;;;10.90;88.70;;;10.68;77.22;97698.09;5038120;28;20451;-72
2023/04/28 08:00:14;;;;;;;5.37;4.30;;;11.00;88.20;;;10.33;78.61;97699.41;5020498;28;20515;-71
2023/04/28 08:02:42;;;;;;;4.93;3.90;;;10.90;89.90;;;10.25;80.23;97697.81;5026310;28;20445;-70
2023/04/28 08:05:09;;;;;;;5.63;4.63;;;10.70;90.80;;;10.16;79.51;97713.47;5018906;28;20461;-69
2023/04/28 08:07:37;;;;;;;9.03;5.97;;;10.70;90.60;;;9.97;81.49;97701.78;5008576;28;20458;-71
2023/04/28 08:10:05;;;;;;;6.43;5.70;;;10.50;91.70;;;9.93;81.65;97700.56;5019864;28;20457;-71
2023/04/28 08:12:34;;;;;;;6.20;5.43;;;10.50;92.50;;;9.92;82.65;97694.34;5023400;28;20491;-70
2023/04/28 08:15:01;;;;;;;6.57;5.00;;;10.40;93.30;;;10.05;82.80;97695.28;5044492;28;20925;-70
2023/04/28 08:17:29;;;;;;;6.93;5.73;;;10.50;93.40;;;10.21;83.06;97697.44;5013094;28;20983;-71
2023/04/28 08:19:57;;;;;;;7.60;5.43;;;10.60;93.90;;;10.01;83.92;97691.38;5041195;28;20469;-73
2023/04/28 08:22:25;;;;;;;7.63;5.63;;;10.60;94.00;;;10.18;84.00;97684.38;5041889;28;20476;-71
2023/04/28 08:24:52;;;;;;;6.90;5.17;;;10.70;94.40;;;10.16;83.65;97681.09;5039656;28;20454;-71
2023/04/28 08:27:19;;;;;;;7.87;5.67;;;10.70;94.00;;;10.17;84.35;97671.94;5040386;28;20524;-70
2023/04/28 08:29:48;;;;;;;6.03;5.43;;;10.70;94.40;;;9.78;84.69;97606.44;5044189;28;20477;-71
2023/04/28 08:32:15;;;;;;;7.30;5.23;;;10.70;94.70;;;10.35;83.77;97667.63;5034291;28;20861;-69
2023/04/28 08:34:43;;;;;;;6.50;5.20;;;10.80;93.90;;;10.40;83.84;97662.38;5014919;28;20786;-73
2023/04/28 08:37:10;;;;;;;6.30;5.70;;;10.90;93.90;;;11.07;82.85;97666.25;5013513;28;20454;-70
2023/04/28 08:39:37;;;;;;;9.20;5.20;;;11.20;94.50;;;11.00;81.07;97660.09;5018006;28;20457;-67
2023/04/28 08:42:05;;;;;;;6.10;5.50;;;11.40;92.50;;;10.99;80.75;97659.25;5018142;28;20866;-72
2023/04/28 08:44:38;;;;;;;8.03;5.43;;;11.50;92.20;;;10.99;81.75;97634.91;5031769;28;20464;-72
2023/04/28 08:47:13;;;;;;;5.60;5.10;;;11.50;92.50;;;11.09;80.67;97638.97;5035988;28;20526;-69
2023/04/28 08:49:41;;;;;;;5.73;5.07;;;11.50;92.00;;;11.13;80.83;97629.34;5034827;28;20458;-72
2023/04/28 08:52:12;;;;;;;6.70;4.90;;;11.60;91.70;;;11.38;79.68;97629.22;5030171;28;20583;-74
2023/04/28 08:54:40;;;;;;;6.03;4.70;;;11.70;91.70;;;11.23;80.67;97631.53;5032733;28;21013;-71
2023/04/28 08:57:09;;;;;;;5.90;5.30;;;11.60;91.60;;;11.25;80.20;97635.63;5036246;28;20568;-72
2023/04/28 08:59:41;;;;;;;5.87;5.17;;;11.70;91.70;;;10.80;82.50;97644.09;5035695;28;20465;-71
2023/04/28 09:02:10;;;;;;;5.33;4.53;;;11.50;92.00;;;10.65;82.47;97645.31;5037055;28;21242;-71
2023/04/28 09:04:38;;;;;;;4.80;4.40;;;11.30;92.60;;;10.79;84.67;97640.59;5031220;28;20474;-70
2023/04/28 09:07:11;;;;;;;5.83;4.53;;;11.20;95.00;;;10.87;84.29;97642.16;5040692;28;20488;-72
2023/04/28 09:09:39;;;;;;;6.07;5.20;;;11.20;95.20;;;10.67;83.85;97643.22;5051464;28;20492;-71
2023/04/28 09:12:07;;;;;;;6.20;5.23;;;11.20;93.90;;;10.74;85.30;97641.28;5062382;28;20500;-71
2023/04/28 09:14:37;;;;;;;7.10;5.33;;;11.10;95.90;;;10.73;83.61;97625.28;5050365;28;20444;-71
2023/04/28 09:17:12;;;;;;;7.93;5.50;;;11.20;94.90;;;10.73;84.67;97645.03;5051810;28;20460;-70
2023/04/28 09:19:41;;;;;;;4.47;4.03;;;11.10;95.50;;;10.61;86.34;97644.13;5038334;28;20454;-70
2023/04/28 09:22:09;;;;;;;5.37;4.83;;;11.00;96.30;;;10.68;86.20;97642.16;5045645;28;20634;-73
2023/04/28 09:24:40;;;;;;;6.00;5.10;;;11.00;96.90;;;10.85;85.04;97636.97;5035728;28;21122;-73
2023/04/28 09:27:10;;;;;;;5.37;4.87;;;11.10;96.60;;;10.74;85.56;97635.03;5037869;28;20448;-75
2023/04/28 09:29:39;;;;;;;6.60;5.33;;;11.10;96.50;;;10.90;85.44;97649.81;5052041;28;20474;-73
2023/04/28 09:32:17;;;;;;;5.83;5.13;;;11.20;96.40;;;11.08;84.47;97648.13;5029748;28;21021;-73
2023/04/28 09:34:45;;;;;;;5.93;5.33;;;11.40;95.70;;;10.69;85.97;97643.84;5034589;28;20454;-70
2023/04/28 09:37:18;;;;;;;5.87;5.20;;;11.30;95.70;;;10.80;87.04;97644.09;5041508;28;20464;-73
2023/04/28 09:39:46;;;;;;;6.33;5.67;;;11.20;97.80;;;10.80;87.72;97654.91;5038165;28;20454;-72
2023/04/28 09:42:33;;;;;;;6.50;5.90;;;11.20;97.80;;;10.75;87.87;97663.69;5021916;28;20451;-74
2023/04/28 09:45:02;;;;;;;8.13;5.20;;;11.10;98.80;;;10.82;86.78;97647.41;5043028;28;20450;-71
2023/04/28 09:47:32;;;;;;;6.53;5.73;;;11.20;98.00;;;11.02;86.92;97647.16;5035434;28;20523;-72
2023/04/28 09:50:01;;;;;;;7.93;6.00;;;11.30;99.30;;;10.86;88.19;97632.41;5040470;28;20478;-72
2023/04/28 09:52:28;;;;;;;8.60;6.20;;;11.30;99.90;;;11.11;87.48;97628.75;5034300;28;21140;-72
2023/04/28 09:54:57;;;;;;;6.70;5.50;;;11.50;99.30;;;11.40;86.64;97623.56;5044971;28;20459;-74
2023/04/28 09:57:24;;;;;;;6.83;6.13;;;11.70;98.40;;;11.36;86.10;97630.50;5039039;28;20466;-72
2023/04/28 09:59:53;;;;;;;7.80;5.50;;;11.90;95.80;;;11.70;84.75;97636.25;5046310;28;20480;-73
2023/04/28 10:02:21;;;;;;;8.47;6.80;;;12.10;95.70;;;12.01;83.81;97647.81;5037202;28;20546;-75
2023/04/28 10:04:51;;;;;;;8.97;6.03;;;12.30;94.80;;;12.00;83.79;97638.06;5038919;28;20968;-76
2023/04/28 10:07:20;;;;;;;6.40;5.80;;;12.40;94.40;;;11.88;84.28;97627.22;5040954;28;20616;-77
2023/04/28 10:09:49;;;;;;;6.33;5.50;;;12.40;94.10;;;12.03;84.88;97614.06;5036088;28;21012;-74
2023/04/28 10:12:17;;;;;;;7.80;5.90;;;12.40;95.40;;;11.60;86.19;97597.06;5027238;28;20486;-75
2023/04/28 10:14:45;;;;;;;7.03;6.33;;;12.30;95.30;;;12.08;84.21;97626.91;5036986;28;20480;-74
2023/04/28 10:17:14;;;;;;;6.80;5.87;;;12.40;95.30;;;12.21;83.89;97614.19;5031463;28;20457;-77
2023/04/28 10:19:42;;;;;;;10.60;6.50;;;12.50;94.70;;;12.45;82.84;97594.16;5023850;28;20461;-75
2023/04/28 10:22:31;;;;;;;6.50;5.80;;;12.80;94.20;;;12.63;81.84;97599.66;5048567;28;20932;-77
2023/04/28 10:25:24;;;;;;;6.77;6.00;;;12.90;93.60;;;12.63;82.42;97589.63;5044256;28;20451;-75
2023/04/28 10:27:53;;;;;;;12.70;5.90;;;12.90;93.50;;;12.97;80.42;97570.81;5036754;28;20464;-78
2023/04/28 10:30:22;;;;;;;6.77;6.00;;;13.10;92.60;;;12.98;80.26;97586.00;5022440;28;20462;-72
2023/04/28 10:33:28;;;;;;;5.80;5.30;;;13.30;92.00;;;13.28;79.12;97595.78;5020620;28;20553;-77
2023/04/28 10:35:55;;;;;;;7.27;5.60;;;13.50;91.40;;;13.69;77.78;97584.84;5041336;28;20455;-71